Time;durP1;ratioP1;P1;durP2;ratioP2;P2;SDS_P1;SDS_P2;PMS_P1;PMS_P2;Temp;Humidity;BMP_temperature;BMP_pressure;BME280_temperature;BME280_humidity;BME280_pressure;Samples;Min_cycle;Max_cycle;Signal;HPM_P1;HPM_P2
2022/06/28 00:00:29;;;;;;;96.37;90.67;;;11.50;93.60;;;;;;5010308;28;20288;-66
2022/06/28 00:02:55;;;;;;;96.40;90.68;;;11.50;93.60;;;;;;5009004;28;20116;-66
2022/06/28 00:05:21;;;;;;;62.00;57.60;;;11.50;93.60;;;;;;4991247;28;20044;-68
2022/06/28 00:07:47;;;;;;;69.53;65.13;;;11.50;93.60;;;;;;4990017;28;20045;-67
2022/06/28 00:10:15;;;;;;;102.67;96.47;;;11.50;93.60;;;;;;5017184;28;20042;-67
2022/06/28 00:12:41;;;;;;;29.73;27.60;;;11.50;93.70;;;;;;4993910;28;20042;-68
2022/06/28 00:17:54;;;;;;;65.30;60.70;;;11.50;93.80;;;;;;5008820;28;20316;-68
2022/06/28 00:20:20;;;;;;;63.97;60.00;;;11.40;93.80;;;;;;5010260;28;20041;-68
2022/06/28 00:22:45;;;;;;;64.57;60.37;;;11.40;93.90;;;;;;5008274;28;20044;-68
2022/06/28 00:25:11;;;;;;;42.77;39.40;;;11.40;93.90;;;;;;5023617;28;20050;-68
2022/06/28 00:27:37;;;;;;;53.57;50.03;;;11.40;93.90;;;;;;5008537;28;20045;-68
2022/06/28 00:30:04;;;;;;;62.38;58.05;;;11.40;93.90;;;;;;5006227;28;20053;-68
2022/06/28 00:32:32;;;;;;;92.50;86.90;;;11.40;94.00;;;;;;5008266;28;20513;-68
2022/06/28 00:34:58;;;;;;;57.83;54.15;;;11.40;94.00;;;;;;5009363;28;20053;-68
2022/06/28 00:37:24;;;;;;;69.78;65.20;;;11.50;94.00;;;;;;5004775;28;20427;-68
2022/06/28 00:39:49;;;;;;;38.40;35.53;;;11.50;94.00;;;;;;5008800;28;20038;-68
2022/06/28 00:42:15;;;;;;;33.67;30.97;;;11.50;94.10;;;;;;5009258;28;20569;-68
2022/06/28 00:44:41;;;;;;;68.30;63.73;;;11.50;94.10;;;;;;5007197;28;20046;-68
2022/06/28 00:47:09;;;;;;;52.27;48.67;;;11.50;94.10;;;;;;5007115;28;20121;-68
2022/06/28 00:49:39;;;;;;;61.67;57.85;;;11.50;94.10;;;;;;5009170;28;20502;-68
2022/06/28 00:52:06;;;;;;;86.25;80.93;;;11.50;94.20;;;;;;5008691;28;20045;-67
2022/06/28 00:54:32;;;;;;;58.13;53.83;;;11.50;94.10;;;;;;5015066;28;20422;-67
2022/06/28 00:56:58;;;;;;;56.37;52.43;;;11.50;94.10;;;;;;5007292;28;20056;-67
2022/06/28 00:59:24;;;;;;;37.00;34.20;;;11.50;94.30;;;;;;5007959;28;20069;-68
2022/06/28 01:01:50;;;;;;;45.20;42.10;;;11.50;94.30;;;;;;5002142;28;20119;-68
2022/06/28 01:04:16;;;;;;;57.28;52.90;;;11.50;94.40;;;;;;5008426;28;20049;-68
2022/06/28 01:06:42;;;;;;;83.97;79.07;;;11.50;94.40;;;;;;5001267;28;20046;-68
2022/06/28 01:09:08;;;;;;;55.10;50.88;;;11.50;94.50;;;;;;5008018;28;20048;-68
2022/06/28 01:11:34;;;;;;;78.47;73.60;;;11.50;94.50;;;;;;4992596;28;20449;-68
2022/06/28 01:14:02;;;;;;;68.23;63.80;;;11.50;94.40;;;;;;5024524;28;20048;-67
2022/06/28 01:16:29;;;;;;;53.03;49.40;;;11.40;94.50;;;;;;4992142;28;20301;-68
2022/06/28 01:18:56;;;;;;;65.17;60.83;;;11.40;94.50;;;;;;5008005;28;20042;-68
2022/06/28 01:21:26;;;;;;;37.90;35.08;;;11.40;94.50;;;;;;5008639;28;20292;-68
2022/06/28 01:23:52;;;;;;;73.87;69.30;;;11.40;94.60;;;;;;5007458;28;20053;-68
2022/06/28 01:26:21;;;;;;;51.50;47.70;;;11.40;94.60;;;;;;5008949;28;20276;-68
2022/06/28 01:28:51;;;;;;;88.18;82.38;;;11.40;94.70;;;;;;5004657;28;20513;-67
2022/06/28 01:31:19;;;;;;;61.95;58.05;;;11.40;94.90;;;;;;5008757;28;20521;-67
2022/06/28 01:33:45;;;;;;;59.03;55.05;;;11.40;95.00;;;;;;5008081;28;20065;-68
2022/06/28 01:36:11;;;;;;;59.80;55.58;;;11.40;95.10;;;;;;5007072;28;20038;-68
2022/06/28 01:38:39;;;;;;;64.75;60.05;;;11.40;95.10;;;;;;4991393;28;20421;-68
2022/06/28 01:41:05;;;;;;;71.95;67.25;;;11.40;95.10;;;;;;4986877;28;20041;-67
2022/06/28 01:43:32;;;;;;;90.40;84.47;;;11.40;95.20;;;;;;4990549;28;20053;-67
2022/06/28 01:45:59;;;;;;;68.40;63.78;;;11.50;95.20;;;;;;5006507;28;20293;-67
2022/06/28 01:48:25;;;;;;;88.18;82.43;;;11.50;95.30;;;;;;5001658;28;20042;-67
2022/06/28 01:50:52;;;;;;;67.50;62.93;;;11.60;95.30;;;;;;4999958;28;20038;-67
2022/06/28 01:53:19;;;;;;;59.50;55.17;;;11.60;95.40;;;;;;5007139;28;20292;-67
2022/06/28 01:55:44;;;;;;;56.42;52.30;;;11.70;95.60;;;;;;5005973;28;20053;-67
2022/06/28 01:58:10;;;;;;;90.43;84.93;;;11.80;95.70;;;;;;5006923;28;20073;-67
2022/06/28 02:00:36;;;;;;;80.93;75.40;;;11.80;95.70;;;;;;5022770;28;20064;-67
2022/06/28 02:03:02;;;;;;;50.53;46.60;;;11.80;95.60;;;;;;5006372;28;20285;-67
2022/06/28 02:05:29;;;;;;;33.60;30.45;;;11.80;95.60;;;;;;5006417;28;20038;-67
2022/06/28 02:07:55;;;;;;;86.20;80.50;;;11.80;95.60;;;;;;4982213;28;20148;-67
2022/06/28 02:10:21;;;;;;;44.92;40.92;;;11.80;95.50;;;;;;5006306;28;20041;-68
2022/06/28 02:12:47;;;;;;;82.25;76.95;;;11.70;95.60;;;;;;4986752;28;20049;-68
2022/06/28 02:15:14;;;;;;;30.23;27.20;;;11.70;95.60;;;;;;5005831;28;20809;-68
2022/06/28 02:17:40;;;;;;;45.90;42.30;;;11.70;95.60;;;;;;5006153;28;20030;-68
2022/06/28 02:20:07;;;;;;;28.75;22.77;;;11.70;95.70;;;;;;5004532;28;20289;-68
2022/06/28 02:22:32;;;;;;;37.70;35.07;;;11.60;95.80;;;;;;4989975;28;20041;-68
2022/06/28 02:24:58;;;;;;;71.07;66.87;;;11.60;95.80;;;;;;5004907;28;20292;-68
2022/06/28 02:27:24;;;;;;;70.73;66.03;;;11.60;95.90;;;;;;5006095;28;20049;-68
2022/06/28 02:29:50;;;;;;;70.78;66.35;;;11.70;96.20;;;;;;5006606;28;20100;-68
2022/06/28 02:32:15;;;;;;;72.77;67.50;;;11.80;96.30;;;;;;5002111;28;20045;-68
2022/06/28 02:40:22;;;;;;;65.22;61.00;;;12.00;96.80;;;;;;5019501;28;20320;-68
2022/06/28 02:42:52;;;;;;;74.60;70.03;;;11.90;96.60;;;;;;4997374;28;20063;-68
2022/06/28 02:45:19;;;;;;;49.20;45.55;;;11.90;96.40;;;;;;5017948;28;20635;-68
2022/06/28 02:47:45;;;;;;;35.78;32.95;;;11.90;96.30;;;;;;5006751;28;20120;-68
2022/06/28 02:50:11;;;;;;;68.33;64.17;;;11.80;96.10;;;;;;4989019;28;20573;-68
2022/06/28 02:52:37;;;;;;;19.53;16.20;;;11.80;96.10;;;;;;5006027;28;20581;-68
2022/06/28 02:55:03;;;;;;;77.80;72.97;;;11.80;96.10;;;;;;5004908;28;20316;-68
2022/06/28 02:57:29;;;;;;;69.30;65.17;;;11.80;96.10;;;;;;5005580;28;20557;-68
2022/06/28 02:59:55;;;;;;;101.73;96.00;;;11.80;96.10;;;;;;5004210;28;20284;-68
2022/06/28 03:02:21;;;;;;;70.00;65.73;;;11.70;96.10;;;;;;5005776;28;20289;-69
2022/06/28 03:04:47;;;;;;;72.40;67.60;;;11.70;96.10;;;;;;4988894;28;20060;-68
2022/06/28 03:07:12;;;;;;;78.57;74.17;;;11.70;96.10;;;;;;4998406;28;20510;-68
2022/06/28 03:09:38;;;;;;;55.13;51.50;;;11.70;96.00;;;;;;5004434;28;20422;-68
2022/06/28 03:12:06;;;;;;;65.00;61.03;;;11.70;96.10;;;;;;4985000;28;20042;-68
2022/06/28 03:14:32;;;;;;;75.00;70.75;;;11.70;96.00;;;;;;5005046;28;20050;-68
2022/06/28 03:16:58;;;;;;;79.57;75.22;;;11.60;96.00;;;;;;4999893;28;20499;-68
2022/06/28 03:19:24;;;;;;;88.93;83.70;;;11.60;96.10;;;;;;4988175;28;20042;-68
2022/06/28 03:21:50;;;;;;;83.87;79.10;;;11.60;96.10;;;;;;4988830;28;20042;-68
2022/06/28 03:24:16;;;;;;;57.97;54.23;;;11.70;96.00;;;;;;5005209;28;20061;-68
2022/06/28 03:26:42;;;;;;;55.40;52.00;;;11.60;96.00;;;;;;5004081;28;20045;-68
2022/06/28 03:29:08;;;;;;;54.97;51.63;;;11.60;96.00;;;;;;5004932;28;20045;-68
2022/06/28 03:31:34;;;;;;;83.47;78.50;;;11.60;96.00;;;;;;5004847;28;20037;-68
2022/06/28 03:34:00;;;;;;;95.93;89.87;;;11.60;96.00;;;;;;4988503;28;20502;-68
2022/06/28 03:36:25;;;;;;;32.07;29.87;;;11.70;96.00;;;;;;5016500;28;20049;-68
2022/06/28 03:38:51;;;;;;;25.43;23.17;;;11.70;96.10;;;;;;5021404;28;20109;-68
2022/06/28 03:41:22;;;;;;;46.37;43.27;;;11.70;96.00;;;;;;5005322;28;20562;-68
2022/06/28 03:43:52;;;;;;;10.77;7.28;;;11.70;96.00;;;;;;5005347;28;20038;-68
2022/06/28 03:46:19;;;;;;;42.93;40.23;;;11.70;96.00;;;;;;4998515;28;20387;-68
2022/06/28 03:48:46;;;;;;;87.43;82.43;;;11.80;96.10;;;;;;4998808;28;20289;-68
2022/06/28 03:51:12;;;;;;;77.70;72.70;;;11.80;96.00;;;;;;5018370;28;20184;-68
2022/06/28 03:53:38;;;;;;;90.40;85.13;;;11.90;96.00;;;;;;5001314;28;20285;-68
2022/06/28 03:56:05;;;;;;;52.00;49.00;;;11.90;96.00;;;;;;5004090;28;20308;-68
2022/06/28 03:58:32;;;;;;;78.50;73.73;;;11.90;96.10;;;;;;5004206;28;20041;-68
2022/06/28 04:00:58;;;;;;;40.17;37.43;;;11.90;96.00;;;;;;5003843;28;20309;-68
2022/06/28 04:03:24;;;;;;;62.43;58.43;;;12.00;96.00;;;;;;5004596;28;20379;-68
2022/06/28 04:05:50;;;;;;;43.43;40.60;;;12.00;96.10;;;;;;4988342;28;20077;-68
2022/06/28 04:08:15;;;;;;;79.87;75.07;;;12.00;96.10;;;;;;4995694;28;20037;-68
2022/06/28 04:10:41;;;;;;;59.27;55.63;;;12.10;96.10;;;;;;5021157;28;20296;-68
2022/06/28 04:13:06;;;;;;;54.20;50.27;;;12.10;96.10;;;;;;5014326;28;20490;-68
2022/06/28 04:15:32;;;;;;;89.53;84.27;;;12.10;96.20;;;;;;5002833;28;20125;-68
2022/06/28 04:17:58;;;;;;;93.67;88.13;;;12.20;96.20;;;;;;4990558;28;20038;-68
2022/06/28 04:20:24;;;;;;;54.87;51.07;;;12.20;96.30;;;;;;5004575;28;20398;-68
2022/06/28 04:22:50;;;;;;;48.23;45.13;;;12.30;96.20;;;;;;4987021;28;20036;-68
2022/06/28 04:25:16;;;;;;;81.47;76.50;;;12.30;96.20;;;;;;5004213;28;20145;-69
2022/06/28 04:27:42;;;;;;;42.50;38.77;;;12.40;96.20;;;;;;5003606;28;20871;-68
2022/06/28 04:30:08;;;;;;;63.40;59.33;;;12.50;96.30;;;;;;5012130;28;20402;-68
2022/06/28 04:32:34;;;;;;;78.47;73.27;;;12.50;96.30;;;;;;5018351;28;20378;-68
2022/06/28 04:34:59;;;;;;;87.70;81.50;;;12.60;96.20;;;;;;5004244;28;20289;-68
2022/06/28 04:37:25;;;;;;;54.33;50.40;;;12.70;96.40;;;;;;4991380;28;20474;-68
2022/06/28 04:39:51;;;;;;;73.57;69.20;;;13.30;97.10;;;;;;5007495;28;20037;-68
2022/06/28 04:42:18;;;;;;;67.23;62.83;;;14.30;98.10;;;;;;4988449;28;20121;-68
2022/06/28 04:44:44;;;;;;;63.63;59.60;;;15.30;97.70;;;;;;5002822;28;20038;-68
2022/06/28 04:47:10;;;;;;;83.90;78.67;;;16.20;94.00;;;;;;5023144;28;20288;-68
2022/06/28 04:49:36;;;;;;;106.23;100.07;;;17.00;90.20;;;;;;5007304;28;20280;-68
2022/06/28 04:52:02;;;;;;;169.77;160.20;;;17.70;86.10;;;;;;5007115;28;20699;-68
2022/06/28 04:54:28;;;;;;;139.27;130.57;;;18.40;84.50;;;;;;5007503;28;20309;-68
2022/06/28 04:56:54;;;;;;;133.13;125.37;;;18.90;81.50;;;;;;5007150;28;20340;-68
2022/06/28 04:59:20;;;;;;;159.97;150.47;;;19.40;80.00;;;;;;5006322;28;20312;-68
2022/06/28 05:01:46;;;;;;;201.13;190.00;;;19.90;77.70;;;;;;5007351;28;20053;-68
2022/06/28 05:04:12;;;;;;;223.93;211.37;;;20.30;75.80;;;;;;5023558;28;20045;-68
2022/06/28 05:06:38;;;;;;;172.83;162.63;;;20.60;74.30;;;;;;4988546;28;20850;-68
2022/06/28 05:09:04;;;;;;;147.63;138.23;;;20.90;73.00;;;;;;5001403;28;20102;-68
2022/06/28 05:11:30;;;;;;;212.97;201.03;;;21.30;72.10;;;;;;5007166;28;20538;-68
2022/06/28 05:13:56;;;;;;;235.07;221.70;;;21.50;70.90;;;;;;5007898;28;20284;-68
2022/06/28 05:16:22;;;;;;;181.53;170.63;;;21.70;70.30;;;;;;5006966;28;20811;-68
2022/06/28 05:18:48;;;;;;;248.50;234.23;;;22.00;69.70;;;;;;5007829;28;20284;-68
2022/06/28 05:21:14;;;;;;;263.67;248.87;;;22.40;68.80;;;;;;4981051;28;20042;-68
2022/06/28 05:23:39;;;;;;;280.80;265.03;;;22.40;66.90;;;;;;5007283;28;20041;-68
2022/06/28 05:26:05;;;;;;;293.37;277.13;;;22.50;66.60;;;;;;5016045;28;20045;-68
2022/06/28 05:28:31;;;;;;;279.47;263.47;;;22.80;66.10;;;;;;5012253;28;20038;-68
2022/06/28 05:30:57;;;;;;;253.10;238.63;;;22.90;64.80;;;;;;4989745;28;20049;-68
2022/06/28 05:33:23;;;;;;;243.33;229.60;;;23.10;64.80;;;;;;4989649;28;20056;-69
2022/06/28 05:35:49;;;;;;;267.97;252.27;;;23.30;64.40;;;;;;5022011;28;20638;-68
2022/06/28 05:38:15;;;;;;;232.63;219.17;;;23.40;64.00;;;;;;5006758;28;20525;-68
2022/06/28 05:40:41;;;;;;;239.27;225.77;;;23.70;63.40;;;;;;5006021;28;20452;-68
2022/06/28 05:43:07;;;;;;;278.30;262.33;;;23.80;62.90;;;;;;4989537;28;20076;-68
2022/06/28 05:45:33;;;;;;;345.20;325.07;;;23.90;62.60;;;;;;4984787;28;20490;-68
2022/06/28 05:47:59;;;;;;;335.80;316.03;;;24.00;62.20;;;;;;5005598;28;20045;-68
2022/06/28 05:50:24;;;;;;;328.53;310.60;;;23.70;61.50;;;;;;4981571;28;20038;-68
2022/06/28 05:52:51;;;;;;;319.53;301.47;;;23.60;61.80;;;;;;4987961;28;20375;-68
2022/06/28 05:55:17;;;;;;;330.47;311.50;;;23.60;61.60;;;;;;5006741;28;20058;-69
2022/06/28 05:57:43;;;;;;;313.73;295.63;;;23.30;61.60;;;;;;4978428;28;20050;-69
2022/06/28 06:00:09;;;;;;;415.23;389.30;;;23.30;61.70;;;;;;5007333;28;20033;-69
2022/06/28 06:02:35;;;;;;;335.70;316.80;;;22.90;59.80;;;;;;5007031;28;20490;-69
2022/06/28 06:05:02;;;;;;;283.93;268.10;;;22.30;62.10;;;;;;5006609;28;20078;-68
2022/06/28 06:07:29;;;;;;;332.80;314.27;;;22.40;62.50;;;;;;5006152;28;20050;-68
2022/06/28 06:09:56;;;;;;;274.17;258.33;;;22.50;62.50;;;;;;5007212;28;20398;-69
2022/06/28 06:12:22;;;;;;;279.33;263.43;;;22.70;62.60;;;;;;5006479;28;20121;-68
2022/06/28 06:14:48;;;;;;;298.80;281.53;;;23.10;62.40;;;;;;5006491;28;20046;-67
2022/06/28 06:17:14;;;;;;;250.07;236.20;;;23.30;61.50;;;;;;4993434;28;20434;-66
2022/06/28 06:19:39;;;;;;;275.90;259.53;;;23.30;60.60;;;;;;5006933;28;20080;-66
2022/06/28 06:22:05;;;;;;;427.20;400.20;;;23.50;61.10;;;;;;5006224;28;20380;-66
2022/06/28 06:24:31;;;;;;;295.17;277.90;;;23.50;57.80;;;;;;5013605;28;20099;-68
2022/06/28 06:26:57;;;;;;;388.53;366.07;;;23.40;59.80;;;;;;5006233;28;20091;-69
2022/06/28 06:29:23;;;;;;;304.23;286.87;;;22.90;58.30;;;;;;5004947;28;20037;-66
2022/06/28 06:31:48;;;;;;;302.70;285.23;;;22.40;60.50;;;;;;5006635;28;20045;-66
2022/06/28 06:34:14;;;;;;;307.53;290.43;;;22.20;61.00;;;;;;4985204;28;20042;-66
2022/06/28 06:36:41;;;;;;;318.00;299.80;;;22.30;61.80;;;;;;4981958;28;20160;-69
2022/06/28 06:39:07;;;;;;;295.80;278.47;;;22.40;61.80;;;;;;4996028;28;20129;-69
2022/06/28 06:41:33;;;;;;;314.30;297.13;;;22.50;61.30;;;;;;5006121;28;20049;-68
2022/06/28 06:43:59;;;;;;;261.37;246.67;;;22.10;62.20;;;;;;5000045;28;20431;-67
2022/06/28 06:46:25;;;;;;;299.67;282.37;;;22.00;61.80;;;;;;4973722;28;20050;-67
2022/06/28 06:48:51;;;;;;;299.07;281.47;;;22.30;62.30;;;;;;4995765;28;20049;-67
2022/06/28 06:51:17;;;;;;;286.30;269.83;;;22.40;62.50;;;;;;5003944;28;20065;-67
2022/06/28 06:53:43;;;;;;;250.40;236.20;;;22.40;62.00;;;;;;5011747;28;20041;-67
2022/06/28 06:56:10;;;;;;;371.17;350.33;;;22.50;62.10;;;;;;4994050;28;20059;-67
2022/06/28 06:58:36;;;;;;;359.90;339.00;;;22.30;61.00;;;;;;4988637;28;20584;-67
2022/06/28 07:01:01;;;;;;;362.93;340.93;;;22.10;60.90;;;;;;5012254;28;20073;-67
2022/06/28 07:03:27;;;;;;;348.93;327.77;;;22.20;62.20;;;;;;5005876;28;20415;-67
2022/06/28 07:05:53;;;;;;;381.47;358.90;;;22.20;63.00;;;;;;5006053;28;20049;-67
2022/06/28 07:08:19;;;;;;;325.73;306.43;;;22.20;62.60;;;;;;5001976;28;20204;-67
2022/06/28 07:10:45;;;;;;;266.30;252.50;;;22.20;62.90;;;;;;5006206;28;20103;-68
2022/06/28 07:13:11;;;;;;;393.87;372.07;;;22.10;62.40;;;;;;4998002;28;20117;-67
2022/06/28 07:15:36;;;;;;;270.73;257.10;;;21.80;61.00;;;;;;5002313;28;20072;-67
2022/06/28 07:18:02;;;;;;;248.27;236.20;;;21.40;60.10;;;;;;5005568;28;20034;-67
2022/06/28 07:20:29;;;;;;;284.67;270.47;;;20.90;59.00;;;;;;4986524;28;20461;-67
2022/06/28 07:22:54;;;;;;;243.30;230.67;;;20.70;61.70;;;;;;4985980;28;20060;-67
2022/06/28 07:25:20;;;;;;;285.50;271.07;;;20.50;62.30;;;;;;4987238;28;20042;-67
2022/06/28 07:27:46;;;;;;;346.30;327.40;;;20.40;63.90;;;;;;4983726;28;20042;-67
2022/06/28 07:30:12;;;;;;;299.23;283.90;;;20.20;60.70;;;;;;5004726;28;20124;-67
2022/06/28 07:32:37;;;;;;;323.83;307.37;;;20.00;61.50;;;;;;4998796;28;20132;-67
2022/06/28 07:35:04;;;;;;;281.27;266.63;;;19.90;64.00;;;;;;5005154;28;20042;-67
2022/06/28 07:37:30;;;;;;;356.17;337.43;;;19.90;64.80;;;;;;5005546;28;20157;-67
2022/06/28 07:39:55;;;;;;;267.47;253.33;;;19.80;61.60;;;;;;4993497;28;20463;-67
2022/06/28 07:42:21;;;;;;;275.30;261.37;;;19.80;61.70;;;;;;5021801;28;20142;-67
2022/06/28 07:44:47;;;;;;;320.90;304.37;;;19.70;62.40;;;;;;5005157;28;20045;-67
2022/06/28 07:47:12;;;;;;;247.83;234.90;;;19.80;63.60;;;;;;5004958;28;20085;-67
2022/06/28 07:52:34;;;;;;;247.00;234.13;;;19.90;62.60;;;;;;5003285;28;20406;-67
2022/06/28 07:55:01;;;;;;;314.53;297.30;;;20.10;63.50;;;;;;4999357;28;20601;-67
2022/06/28 07:57:27;;;;;;;295.13;279.30;;;20.00;61.10;;;;;;4987960;28;20042;-67
2022/06/28 07:59:53;;;;;;;281.20;266.63;;;19.80;59.50;;;;;;4987225;28;20659;-67
2022/06/28 08:02:19;;;;;;;294.33;278.53;;;19.70;61.00;;;;;;5004312;28;20375;-67
2022/06/28 08:04:45;;;;;;;285.93;270.10;;;19.70;60.90;;;;;;5003687;28;20034;-67
2022/06/28 08:07:10;;;;;;;260.87;246.47;;;19.70;58.30;;;;;;5003669;28;20449;-67
2022/06/28 08:09:36;;;;;;;218.50;207.43;;;19.60;58.10;;;;;;5003416;28;20052;-67
2022/06/28 08:12:02;;;;;;;228.57;216.57;;;19.70;60.00;;;;;;5005696;28;20513;-67
2022/06/28 08:14:29;;;;;;;264.33;250.00;;;19.80;60.70;;;;;;4976648;28;20490;-67
2022/06/28 08:16:55;;;;;;;295.13;279.33;;;19.80;58.00;;;;;;4984581;28;20103;-67
2022/06/28 08:19:20;;;;;;;233.17;221.33;;;19.90;58.60;;;;;;5008755;28;20033;-67
2022/06/28 08:21:47;;;;;;;240.87;227.73;;;19.90;60.00;;;;;;5009268;28;20551;-67
2022/06/28 08:24:13;;;;;;;233.77;221.40;;;20.00;60.50;;;;;;5000499;28;20364;-67
2022/06/28 08:26:42;;;;;;;246.60;233.37;;;20.10;59.70;;;;;;5004920;28;20046;-67
2022/06/28 08:29:16;;;;;;;226.53;214.70;;;20.20;58.70;;;;;;5009167;28;20081;-67
2022/06/28 08:31:43;;;;;;;251.77;238.43;;;20.30;58.90;;;;;;5008054;28;20048;-67
2022/06/28 08:34:10;;;;;;;299.20;283.70;;;20.40;58.90;;;;;;5006567;28;20049;-67
2022/06/28 08:36:36;;;;;;;251.43;238.30;;;20.60;60.00;;;;;;5002119;28;20132;-67
2022/06/28 08:39:03;;;;;;;320.73;304.30;;;20.70;58.80;;;;;;4986145;28;20182;-67
2022/06/28 08:41:32;;;;;;;293.13;277.63;;;20.60;56.00;;;;;;5014835;28;20100;-67
2022/06/28 08:43:58;;;;;;;295.20;279.63;;;20.60;57.00;;;;;;5000148;28;20034;-67
2022/06/28 08:46:26;;;;;;;342.37;324.03;;;20.60;55.60;;;;;;4998309;28;20137;-67
2022/06/28 08:48:58;;;;;;;355.97;336.47;;;20.50;55.00;;;;;;5005946;28;20555;-67
2022/06/28 08:51:30;;;;;;;290.13;275.43;;;20.60;56.30;;;;;;5007359;28;20137;-67
2022/06/28 08:53:59;;;;;;;287.00;271.50;;;20.70;57.70;;;;;;5008246;28;20128;-67
2022/06/28 08:56:25;;;;;;;341.27;322.57;;;20.80;55.90;;;;;;5005629;28;20053;-67
2022/06/28 08:58:51;;;;;;;391.73;368.73;;;20.90;55.10;;;;;;5023165;28;20038;-67
2022/06/28 09:01:17;;;;;;;406.80;383.97;;;20.90;52.20;;;;;;4974829;28;20405;-67
2022/06/28 09:03:46;;;;;;;346.53;328.53;;;20.70;54.70;;;;;;5002836;28;20100;-67
2022/06/28 09:06:12;;;;;;;282.70;267.47;;;20.60;56.70;;;;;;5003613;28;20049;-67
2022/06/28 09:08:38;;;;;;;262.00;248.20;;;20.80;55.80;;;;;;4997247;28;20041;-67
2022/06/28 09:11:04;;;;;;;290.07;274.50;;;20.90;53.70;;;;;;5004941;28;20045;-67
2022/06/28 09:13:30;;;;;;;266.67;252.37;;;21.00;52.90;;;;;;5019578;28;20042;-67
2022/06/28 09:15:58;;;;;;;356.00;335.83;;;21.20;53.20;;;;;;5012323;28;20568;-67
2022/06/28 09:18:44;;;;;;;345.03;326.17;;;21.10;53.80;;;;;;5001642;28;20491;-67
2022/06/28 09:21:13;;;;;;;370.63;349.00;;;21.20;54.60;;;;;;4987134;28;20108;-67
2022/06/28 09:23:41;;;;;;;314.27;296.90;;;21.30;54.80;;;;;;5010788;28;20077;-67
2022/06/28 09:26:16;;;;;;;324.60;306.90;;;21.30;54.30;;;;;;4987413;28;20061;-67
2022/06/28 09:28:45;;;;;;;322.33;304.07;;;21.40;55.90;;;;;;5006095;28;20085;-67
2022/06/28 09:31:22;;;;;;;435.80;408.73;;;21.50;55.90;;;;;;5005404;28;20046;-67
2022/06/28 09:34:04;;;;;;;379.67;357.60;;;21.50;53.80;;;;;;5006822;28;20115;-67
2022/06/28 09:36:33;;;;;;;334.33;315.60;;;21.30;54.00;;;;;;4984528;28;20039;-67
2022/06/28 09:39:12;;;;;;;341.23;321.10;;;21.40;55.90;;;;;;5002657;28;20042;-67
2022/06/28 09:41:38;;;;;;;373.50;352.27;;;21.50;55.30;;;;;;5003613;28;20514;-67
2022/06/28 09:44:03;;;;;;;368.70;347.43;;;21.70;55.50;;;;;;5018695;28;20046;-67
2022/06/28 09:46:31;;;;;;;383.40;361.13;;;21.80;55.40;;;;;;5005183;28;20721;-67
2022/06/28 09:49:03;;;;;;;323.37;305.67;;;21.90;55.50;;;;;;5006503;28;20077;-67
2022/06/28 09:51:30;;;;;;;384.97;363.03;;;21.90;53.80;;;;;;4986888;28;20132;-67
2022/06/28 09:54:05;;;;;;;325.63;307.37;;;21.50;53.90;;;;;;5001330;28;20096;-67
2022/06/28 09:56:36;;;;;;;373.58;352.52;;;21.40;54.90;;;;;;5004926;28;20054;-67
2022/06/28 09:59:03;;;;;;;384.67;363.33;;;21.40;55.80;;;;;;5004542;28;20096;-67
2022/06/28 10:01:30;;;;;;;368.60;347.47;;;21.50;55.30;;;;;;5005829;28;20065;-67
2022/06/28 10:03:56;;;;;;;363.17;343.43;;;21.50;55.10;;;;;;5006854;28;20034;-67
2022/06/28 10:06:23;;;;;;;334.47;316.07;;;21.50;53.80;;;;;;5005884;28;20052;-67
2022/06/28 10:08:49;;;;;;;355.77;335.97;;;21.40;54.50;;;;;;5006222;28;20081;-67
2022/06/28 10:11:16;;;;;;;342.20;323.33;;;21.40;54.30;;;;;;5006091;28;20652;-67
2022/06/28 10:16:44;;;;;;;367.43;346.63;;;21.80;55.20;;;;;;4998696;28;20046;-67
2022/06/28 10:19:11;;;;;;;324.07;306.50;;;22.20;55.00;;;;;;5005125;28;20046;-67
2022/06/28 10:22:11;;;;;;;400.63;377.43;;;22.30;54.10;;;;;;4985203;28;20038;-67
2022/06/28 10:24:52;;;;;;;380.47;358.53;;;22.30;53.70;;;;;;4985606;28;20135;-67
2022/06/28 10:27:18;;;;;;;372.60;350.93;;;22.50;54.60;;;;;;4984181;28;20684;-67
2022/06/28 10:30:07;;;;;;;366.60;346.53;;;22.60;54.10;;;;;;5004876;28;20045;-67
2022/06/28 10:32:39;;;;;;;333.70;314.50;;;22.80;53.00;;;;;;5005007;28;20119;-67
2022/06/28 10:35:05;;;;;;;393.47;371.53;;;23.00;53.80;;;;;;5005210;28;20521;-67
2022/06/28 10:37:32;;;;;;;452.07;427.10;;;23.10;53.20;;;;;;4988921;28;20337;-67
2022/06/28 10:40:26;;;;;;;369.40;349.33;;;23.10;51.10;;;;;;4981686;28;20035;-67
2022/06/28 10:42:53;;;;;;;397.63;375.53;;;23.10;51.90;;;;;;5004917;28;20567;-67
2022/06/28 10:45:23;;;;;;;387.10;365.70;;;23.20;52.70;;;;;;5001920;28;20034;-67
2022/06/28 10:48:07;;;;;;;397.20;375.60;;;23.20;51.90;;;;;;5005903;28;20046;-67
2022/06/28 10:50:59;;;;;;;341.67;323.20;;;23.20;49.20;;;;;;5002311;28;20157;-67
2022/06/28 10:53:26;;;;;;;320.73;302.90;;;23.20;51.30;;;;;;5020971;28;20608;-67
2022/06/28 10:56:10;;;;;;;393.47;372.10;;;23.20;51.10;;;;;;4988003;28;20073;-67
2022/06/28 10:58:53;;;;;;;437.13;412.63;;;23.20;50.40;;;;;;4989433;28;20522;-67
2022/06/28 11:01:39;;;;;;;418.17;394.80;;;23.30;49.00;;;;;;5003392;28;20040;-67
2022/06/28 11:04:09;;;;;;;463.37;437.43;;;23.30;50.10;;;;;;5004987;28;20117;-67
2022/06/28 11:06:43;;;;;;;378.17;358.00;;;23.40;49.30;;;;;;4997443;28;20042;-67
2022/06/28 11:09:17;;;;;;;385.53;364.37;;;23.40;49.30;;;;;;5002152;28;20598;-67
2022/06/28 11:12:15;;;;;;;373.73;353.30;;;23.30;48.60;;;;;;5016227;28;20669;-67
2022/06/28 11:14:47;;;;;;;412.03;389.57;;;23.30;48.20;;;;;;4984858;28;20458;-67
2022/06/28 11:17:15;;;;;;;435.73;411.53;;;23.00;50.30;;;;;;5002242;28;20402;-67
2022/06/28 11:19:50;;;;;;;376.43;356.00;;;22.80;49.50;;;;;;5000587;28;20363;-67
2022/06/28 11:22:20;;;;;;;;;;;22.70;50.00;;;;;;4984325;28;20034;-67
2022/06/28 11:24:46;;;;;;;381.53;360.70;;;22.70;50.60;;;;;;5013897;28;19917;-67
2022/06/28 11:27:21;;;;;;;344.87;326.37;;;22.60;48.40;;;;;;5003420;28;20128;-67
2022/06/28 11:30:01;;;;;;;448.13;422.63;;;22.60;49.40;;;;;;4999689;28;20048;-67
2022/06/28 11:32:32;;;;;;;409.73;387.70;;;22.60;49.50;;;;;;5005165;28;20049;-67
2022/06/28 11:35:13;;;;;;;375.07;354.97;;;22.40;48.90;;;;;;4988570;28;20084;-67
2022/06/28 11:37:53;;;;;;;344.53;326.63;;;22.50;50.10;;;;;;5003995;28;20042;-67
2022/06/28 11:40:25;;;;;;;389.67;368.40;;;22.70;48.60;;;;;;4987961;28;20484;-67
2022/06/28 11:43:09;;;;;;;374.80;354.77;;;22.90;49.20;;;;;;5004588;28;20049;-67
2022/06/28 11:45:46;;;;;;;405.87;382.67;;;23.00;49.50;;;;;;4982461;28;20338;-67
2022/06/28 11:48:18;;;;;;;376.50;356.23;;;23.10;49.50;;;;;;4985269;28;20053;-67
2022/06/28 11:50:47;;;;;;;354.37;335.03;;;23.20;49.40;;;;;;5024385;28;20046;-67
2022/06/28 11:53:14;;;;;;;343.00;324.57;;;23.20;49.30;;;;;;4991364;28;20046;-67
2022/06/28 11:55:46;;;;;;;333.37;315.57;;;23.20;50.20;;;;;;5007987;28;20338;-67
2022/06/28 11:58:19;;;;;;;316.47;299.57;;;23.40;50.30;;;;;;4991446;28;20056;-67
2022/06/28 12:01:08;;;;;;;390.70;369.93;;;23.60;49.30;;;;;;5008251;28;20038;-67
2022/06/28 12:03:43;;;;;;;427.00;403.70;;;23.80;47.80;;;;;;5003325;28;20038;-67
2022/06/28 12:06:10;;;;;;;;;;;23.80;48.00;;;;;;5004490;28;20137;-67
2022/06/28 12:08:50;;;;;;;386.33;364.63;;;23.80;49.40;;;;;;4997723;28;20588;-67
2022/06/28 12:11:32;;;;;;;481.70;454.03;;;23.60;48.30;;;;;;5006433;28;20042;-67
2022/06/28 12:14:12;;;;;;;398.83;376.20;;;23.40;47.50;;;;;;5008197;28;20045;-67
2022/06/28 12:16:54;;;;;;;354.13;335.10;;;23.20;47.90;;;;;;5004776;28;20413;-67
2022/06/28 12:19:34;;;;;;;450.83;425.40;;;22.90;50.10;;;;;;5005960;28;20077;-67
2022/06/28 12:22:16;;;;;;;411.70;388.30;;;22.90;48.70;;;;;;5001328;28;20053;-67
2022/06/28 12:24:53;;;;;;;355.47;335.80;;;22.90;51.70;;;;;;5014724;28;20451;-67
2022/06/28 12:27:31;;;;;;;285.33;269.97;;;23.20;51.70;;;;;;5008916;28;20046;-67
2022/06/28 12:29:58;;;;;;;427.93;404.87;;;23.50;51.50;;;;;;5008451;28;20502;-67
2022/06/28 12:32:24;;;;;;;442.00;417.00;;;23.90;49.80;;;;;;4984726;28;20042;-67
2022/06/28 12:35:08;;;;;;;413.97;390.90;;;23.80;50.50;;;;;;5008775;28;20108;-67